Hauptseite
METAR-TAF:

METAR-TAF

Flughäfen :

Schleswig-Jagel, Deutschland

Fliegerhorst Schleswig

Breite: 54-28N, Länge: 009-31E, Höhe: 22 m

Beobachtung

Neuester Wetterbericht von vor 36 Minuten, um 11:20 UTC
Wind 14 kt aus West
Temperatur 17°C
Luftfeuchtigkeit 72%
Luftdruck 1020 hPa
Sichtweite 10 km oder mehr
Leicht bewölkt in der Höhe von 2200 ft
Durchbrochene Bewölkung in der Höhe von 4000 ft

METAR: ETNS 211120Z 28014KT 9999 FEW022 BKN040 17/12 Q1020 BLU BLU

Zeit: 13:56 (11:56 UTC)

Prognose

Neuester Wetterbericht von vor 1 Stunde und 36 Minuten, um 10:20 UTC
Gültige Prognose vom 21 um 11 UTC bis 21 um 20 UTC
Wind 15 kt aus West/Nordwest, Böen bis zu 25 kt
Sichtweite 10 km oder mehr
Leicht bewölkt in der Höhe von 1500 ft
Durchbrochene Bewölkung in der Höhe von 4000 ft

TAF: ETNS 211020Z 2111/2120 30015G25KT 9999 NSW FEW015 BKN040 BY ETGL

Wetterbeobachtungen und Prognosen von mehr als 4000 Flughäfen (METAR und TAF Bericht).

Die verfügbaren Stationen werden durch gelbe und rote Markierungen auf der Karte dargestellt.

Führen Sie die Maus auf sie, um den Namen der Station zu sehen.

Darauf klicken, um die Beobachtung von Wetterbeobachtungen und Prognosen zu sehen.

Um die Karte zu ändern : klicken Sie auf den grünen Tasten mit einem schwarzen Kreuz Zum Vergrößern, auf den grünen Button mit einem Gedankenstrich zu verkleinern, oder auf die grünen Pfeile für benachbarte Karten.


METAR-TAF: